^^
Station Historical Data
Daily Summary for January 10, 2018 Units:  Both    English   Metric
« Previous Day
Next Day »
Daily Weekly Monthly Yearly Custom
  High: Low: Average:
Temperature: TemperatureF °F /  -17.8 °C 83.8 °F /  28.8 °C 85.4 °F /  29.7 °C
Dew Point: DewpointF °F /  -17.8 °C 33.8 °F /  1 °C 34.6 °F /  1.4 °C
Humidity: Humidity% 14% 15%
Wind Speed: WindSpeedMPHmph /  0km/h - -21.1mph /  -34km/h
Wind Gust: WindSpeedGustMPHmph /  0km/h - -
Wind- -
Pressure: PressureIn in /  0 hPa 29.51 in /  999.2 hPa -
Precipitation: 0.00 in /  0 mm    
Historical Graphs
 
 
Tabular Data for January 10, 2018
Time Temperature Dew Point Pressure Wind Wind Speed Wind Gust Humidity Rainfall Rate (Hourly) solar Conditions
TemperatureF °F /  -17.8 °C DewpointF °F /  -17.8 °C PressureInin /  0hPa Calm     Humidity% HourlyPrecipInin /  0mm SoftwareType W/m2 Conditions
15:45 88.2 °F /  31.2 °C 36.3 °F /  2.4 °C 29.54in /  1000.2hPa SSE 2.0mph /  3.2km/h 5.0mph /  8km/h 16% 0.00in /  0mm meteobridge W/m2
16:20 91.8 °F /  33.2 °C 37.6 °F /  3.1 °C 29.52in /  999.5hPa SE 6.0mph /  9.7km/h 9.0mph /  14.5km/h 15% 0.00in /  0mm meteobridge W/m2
16:22 91.9 °F /  33.3 °C 36.0 °F /  2.2 °C 29.52in /  999.5hPa ESE 0.9mph /  1.4km/h 6.0mph /  9.7km/h 14% 0.00in /  0mm meteobridge W/m2
16:24 92.1 °F /  33.4 °C 36.1 °F /  2.3 °C 29.52in /  999.5hPa ESE 0.9mph /  1.4km/h 5.0mph /  8km/h 14% 0.00in /  0mm meteobridge W/m2
16:28 92.1 °F /  33.4 °C 36.1 °F /  2.3 °C 29.52in /  999.5hPa SW 8.9mph /  14.3km/h 9.0mph /  14.5km/h 14% 0.00in /  0mm meteobridge W/m2
16:30 91.8 °F /  33.2 °C 37.6 °F /  3.1 °C 29.52in /  999.5hPa WSW 4.9mph /  7.9km/h 7.0mph /  11.3km/h 15% 0.00in /  0mm meteobridge W/m2
16:32 91.6 °F /  33.1 °C 37.4 °F /  3 °C 29.52in /  999.5hPa SSW 6.0mph /  9.7km/h 6.0mph /  9.7km/h 15% 0.00in /  0mm meteobridge W/m2
16:34 91.2 °F /  32.9 °C 35.4 °F /  1.9 °C 29.52in /  999.5hPa SW 4.9mph /  7.9km/h 9.0mph /  14.5km/h 14% 0.00in /  0mm meteobridge W/m2
16:38 90.9 °F /  32.7 °C 35.1 °F /  1.7 °C 29.52in /  999.5hPa NNW 2.0mph /  3.2km/h 4.0mph /  6.4km/h 14% 0.00in /  0mm meteobridge W/m2
16:42 91.8 °F /  33.2 °C 37.6 °F /  3.1 °C 29.52in /  999.5hPa North 10.1mph /  16.3km/h 11.0mph /  17.7km/h 15% 0.00in /  0mm meteobridge W/m2
16:44 91.8 °F /  33.2 °C 37.6 °F /  3.1 °C 29.52in /  999.5hPa SSE 2.9mph /  4.7km/h 10.0mph /  16.1km/h 15% 0.00in /  0mm meteobridge W/m2
16:46 91.8 °F /  33.2 °C 37.6 °F /  3.1 °C 29.52in /  999.5hPa Calm   3.0mph /  4.8km/h 15% 0.00in /  0mm meteobridge W/m2
16:48 91.6 °F /  33.1 °C 37.4 °F /  3 °C 29.52in /  999.5hPa North 4.9mph /  7.9km/h 10.0mph /  16.1km/h 15% 0.00in /  0mm meteobridge W/m2
16:52 90.3 °F /  32.4 °C 36.3 °F /  2.4 °C 29.52in /  999.5hPa NNW 2.9mph /  4.7km/h 7.0mph /  11.3km/h 15% 0.00in /  0mm meteobridge W/m2
16:54 90.1 °F /  32.3 °C 36.3 °F /  2.4 °C 29.51in /  999.2hPa North 13.0mph /  20.9km/h 13.0mph /  20.9km/h 15% 0.00in /  0mm meteobridge W/m2
16:56 89.4 °F /  31.9 °C 35.6 °F /  2 °C 29.51in /  999.2hPa NNW 4.0mph /  6.4km/h 12.0mph /  19.3km/h 15% 0.00in /  0mm meteobridge W/m2
17:00 87.4 °F /  30.8 °C 35.8 °F /  2.1 °C 29.51in /  999.2hPa NNW 12.1mph /  19.5km/h 16.0mph /  25.7km/h 16% 0.00in /  0mm meteobridge W/m2
17:06 86.4 °F /  30.2 °C 34.9 °F /  1.6 °C 29.51in /  999.2hPa NNE 4.9mph /  7.9km/h 7.0mph /  11.3km/h 16% 0.00in /  0mm meteobridge W/m2
17:08 86.2 °F /  30.1 °C 34.7 °F /  1.5 °C 29.51in /  999.2hPa NNE 4.9mph /  7.9km/h 10.0mph /  16.1km/h 16% 0.00in /  0mm meteobridge W/m2
17:12 85.6 °F /  29.8 °C 34.3 °F /  1.3 °C 29.51in /  999.2hPa North 6.9mph /  11.1km/h 13.0mph /  20.9km/h 16% 0.00in /  0mm meteobridge W/m2
17:14 85.5 °F /  29.7 °C 34.2 °F /  1.2 °C 29.51in /  999.2hPa North 4.9mph /  7.9km/h 8.0mph /  12.9km/h 16% 0.00in /  0mm meteobridge W/m2
17:26 84.9 °F /  29.4 °C 35.2 °F /  1.8 °C 29.52in /  999.5hPa NNE 0.9mph /  1.4km/h 2.0mph /  3.2km/h 17% 0.00in /  0mm meteobridge W/m2
17:33 85.1 °F /  29.5 °C 33.8 °F /  1 °C 29.52in /  999.5hPa Calm     16% 0.00in /  0mm meteobridge W/m2
17:45 85.5 °F /  29.7 °C 34.2 °F /  1.2 °C 29.52in /  999.5hPa Calm   3.0mph /  4.8km/h 16% 0.00in /  0mm meteobridge W/m2
17:53 85.5 °F /  29.7 °C 35.6 °F /  2 °C 29.52in /  999.5hPa NE 0.9mph /  1.4km/h 2.0mph /  3.2km/h 17% 0.00in /  0mm meteobridge W/m2
17:59 85.3 °F /  29.6 °C 34.0 °F /  1.1 °C 29.52in /  999.5hPa North 4.0mph /  6.4km/h 6.0mph /  9.7km/h 16% 0.00in /  0mm meteobridge W/m2
18:04 84.9 °F /  29.4 °C 35.2 °F /  1.8 °C 29.52in /  999.5hPa North 0.9mph /  1.4km/h 4.0mph /  6.4km/h 17% 0.00in /  0mm meteobridge W/m2
18:08 85.1 °F /  29.5 °C 35.4 °F /  1.9 °C 29.52in /  999.5hPa North 2.0mph /  3.2km/h 6.0mph /  9.7km/h 17% 0.00in /  0mm meteobridge W/m2
18:14 85.3 °F /  29.6 °C 34.0 °F /  1.1 °C 29.52in /  999.5hPa NNE 2.9mph /  4.7km/h 4.0mph /  6.4km/h 16% 0.00in /  0mm meteobridge W/m2
18:20 85.3 °F /  29.6 °C 35.6 °F /  2 °C 29.52in /  999.5hPa NNE 2.9mph /  4.7km/h 4.0mph /  6.4km/h 17% 0.00in /  0mm meteobridge W/m2
18:26 85.5 °F /  29.7 °C 34.2 °F /  1.2 °C 29.52in /  999.5hPa North 6.9mph /  11.1km/h 8.0mph /  12.9km/h 16% 0.00in /  0mm meteobridge W/m2
18:32 85.1 °F /  29.5 °C 33.8 °F /  1 °C 29.52in /  999.5hPa Calm   4.0mph /  6.4km/h 16% 0.00in /  0mm meteobridge W/m2
18:38 85.3 °F /  29.6 °C 35.6 °F /  2 °C 29.53in /  999.9hPa ESE 0.9mph /  1.4km/h 4.0mph /  6.4km/h 17% 0.00in /  0mm meteobridge W/m2
18:44 84.7 °F /  29.3 °C 35.1 °F /  1.7 °C 29.53in /  999.9hPa Calm   4.0mph /  6.4km/h 17% 0.00in /  0mm meteobridge W/m2
18:50 84.6 °F /  29.2 °C 34.9 °F /  1.6 °C 29.54in /  1000.2hPa SE 2.9mph /  4.7km/h 9.0mph /  14.5km/h 17% 0.00in /  0mm meteobridge W/m2
18:57 84.2 °F /  29 °C 34.7 °F /  1.5 °C 29.54in /  1000.2hPa SSW 0.9mph /  1.4km/h 7.0mph /  11.3km/h 17% 0.00in /  0mm meteobridge W/m2
19:07 83.8 °F /  28.8 °C 34.3 °F /  1.3 °C 29.54in /  1000.2hPa SSE 10.1mph /  16.3km/h 10.1mph /  16.3km/h 17% 0.00in /  0mm meteobridge W/m2
19:14 83.8 °F /  28.8 °C 34.3 °F /  1.3 °C 29.54in /  1000.2hPa SSE 10.1mph /  16.3km/h -999.0mph /  -1607.7km/h 17% 0.00in /  0mm meteobridge W/m2
19:16 83.8 °F /  28.8 °C 34.3 °F /  1.3 °C 29.54in /  1000.2hPa North -999.9mph /  -1609.1km/h -999.0mph /  -1607.7km/h 17% 0.00in /  0mm meteobridge W/m2
Regenstein, Windhoek, Namibia
Compliments of Weather Underground - 2 mb